Time;durP1;ratioP1;P1;durP2;ratioP2;P2;SDS_P1;SDS_P2;PMS_P1;PMS_P2;Temp;Humidity;BMP_temperature;BMP_pressure;BME280_temperature;BME280_humidity;BME280_pressure;Samples;Min_cycle;Max_cycle;Signal;HPM_P1;HPM_P2
2024/03/07 00:00:32;;;;;;;16.80;8.80;;;;;;;;;;2100533;28;20032;-81
2024/03/07 00:01:52;;;;;;;14.15;8.73;;;;;;;;;;2103950;28;20473;-81
2024/03/07 00:03:11;;;;;;;14.48;8.27;;;;;;;;;;2105849;28;20044;-81
2024/03/07 00:04:30;;;;;;;15.57;7.40;;;;;;;;;;2094824;28;20137;-81
2024/03/07 00:05:49;;;;;;;16.65;7.68;;;;;;;;;;2101406;28;20036;-79
2024/03/07 00:07:09;;;;;;;14.30;8.20;;;;;;;;;;2104050;28;20028;-81
2024/03/07 00:08:27;;;;;;;12.50;7.95;;;;;;;;;;2105245;28;20020;-82
2024/03/07 00:09:46;;;;;;;15.43;8.25;;;;;;;;;;2104753;28;20067;-79
2024/03/07 00:11:07;;;;;;;15.40;7.88;;;;;;;;;;2104670;28;20477;-82
2024/03/07 00:12:27;;;;;;;11.30;7.10;;;;;;;;;;2104418;28;20469;-82
2024/03/07 00:13:46;;;;;;;14.75;8.60;;;;;;;;;;2103559;28;20483;-82
2024/03/07 00:15:06;;;;;;;15.68;8.55;;;;;;;;;;2105772;28;20064;-82
2024/03/07 00:16:25;;;;;;;14.57;8.15;;;;;;;;;;2104725;28;20071;-81
2024/03/07 00:17:44;;;;;;;15.98;9.18;;;;;;;;;;2105403;28;20055;-82
2024/03/07 00:19:03;;;;;;;15.68;8.65;;;;;;;;;;2105007;28;20032;-80
2024/03/07 00:20:22;;;;;;;18.30;9.05;;;;;;;;;;2104577;28;20028;-80
2024/03/07 00:21:41;;;;;;;13.93;8.57;;;;;;;;;;2104861;28;20071;-81
2024/03/07 00:23:00;;;;;;;18.48;9.57;;;;;;;;;;2105240;28;20056;-81
2024/03/07 00:24:19;;;;;;;19.55;9.95;;;;;;;;;;2105012;28;20377;-82
2024/03/07 00:25:38;;;;;;;17.30;8.75;;;;;;;;;;2104588;28;20021;-82
2024/03/07 00:26:57;;;;;;;17.88;9.52;;;;;;;;;;2103704;28;20052;-82
2024/03/07 00:28:17;;;;;;;16.30;9.48;;;;;;;;;;2103948;28;20024;-82
2024/03/07 00:29:37;;;;;;;18.67;9.40;;;;;;;;;;2096906;28;20021;-79
2024/03/07 00:30:57;;;;;;;20.17;9.73;;;;;;;;;;2102709;28;20104;-82
2024/03/07 00:32:18;;;;;;;17.08;8.48;;;;;;;;;;2105471;28;20452;-82
2024/03/07 00:33:37;;;;;;;18.35;9.88;;;;;;;;;;2104109;28;20028;-81
2024/03/07 00:34:58;;;;;;;21.00;9.48;;;;;;;;;;2094465;28;20580;-82
2024/03/07 00:36:18;;;;;;;18.42;9.45;;;;;;;;;;2092465;28;20409;-80
2024/03/07 00:37:36;;;;;;;17.55;9.93;;;;;;;;;;2104027;28;20036;-81
2024/03/07 00:38:55;;;;;;;22.25;9.30;;;;;;;;;;2097387;28;20036;-82
2024/03/07 00:40:14;;;;;;;16.15;9.18;;;;;;;;;;2094464;28;20513;-82
2024/03/07 00:41:33;;;;;;;18.80;9.45;;;;;;;;;;2103423;28;20067;-80
2024/03/07 00:42:54;;;;;;;20.00;9.52;;;;;;;;;;2105407;28;20029;-82
2024/03/07 00:44:13;;;;;;;20.92;10.35;;;;;;;;;;2097722;28;20040;-82
2024/03/07 00:45:32;;;;;;;17.65;9.65;;;;;;;;;;2103172;28;20063;-82
2024/03/07 00:46:52;;;;;;;18.17;9.55;;;;;;;;;;2107107;28;20051;-82
2024/03/07 00:48:11;;;;;;;17.63;9.27;;;;;;;;;;2107113;28;20020;-82
2024/03/07 00:49:30;;;;;;;15.25;8.57;;;;;;;;;;2106543;28;20095;-82
2024/03/07 00:50:49;;;;;;;16.63;9.27;;;;;;;;;;2106690;28;20091;-81
2024/03/07 00:52:08;;;;;;;18.65;9.88;;;;;;;;;;2106582;28;20036;-82
2024/03/07 00:53:27;;;;;;;18.50;9.70;;;;;;;;;;2106889;28;20040;-81
2024/03/07 00:54:46;;;;;;;17.42;9.40;;;;;;;;;;2106589;28;20032;-80
2024/03/07 00:56:05;;;;;;;17.77;9.15;;;;;;;;;;2107798;28;20103;-82
2024/03/07 00:57:24;;;;;;;19.92;9.40;;;;;;;;;;2105904;28;20032;-83
2024/03/07 00:58:43;;;;;;;16.73;9.35;;;;;;;;;;2107899;28;20040;-81
2024/03/07 01:00:03;;;;;;;18.10;8.80;;;;;;;;;;2095585;28;20417;-80
2024/03/07 01:01:22;;;;;;;15.05;8.77;;;;;;;;;;2098032;28;20103;-82
2024/03/07 01:02:43;;;;;;;14.95;8.68;;;;;;;;;;2095378;28;20033;-82
2024/03/07 01:04:02;;;;;;;16.50;9.35;;;;;;;;;;2103676;28;20393;-81
2024/03/07 01:05:21;;;;;;;16.48;8.93;;;;;;;;;;2106498;28;20492;-82
2024/03/07 01:06:41;;;;;;;16.75;9.10;;;;;;;;;;2105331;28;20028;-77
2024/03/07 01:08:00;;;;;;;17.35;9.77;;;;;;;;;;2105370;28;20024;-75
2024/03/07 01:09:19;;;;;;;17.67;9.50;;;;;;;;;;2096922;28;20029;-76
2024/03/07 01:10:38;;;;;;;19.77;8.90;;;;;;;;;;2102922;28;20032;-76
2024/03/07 01:11:58;;;;;;;16.35;9.18;;;;;;;;;;2106617;28;20024;-76
2024/03/07 01:13:22;;;;;;;17.88;9.00;;;;;;;;;;2106507;28;20043;-76
2024/03/07 01:14:41;;;;;;;13.82;7.88;;;;;;;;;;2106989;28;20090;-76
2024/03/07 01:16:00;;;;;;;14.20;8.63;;;;;;;;;;2106127;28;20040;-76
2024/03/07 01:17:19;;;;;;;13.02;8.55;;;;;;;;;;2106411;28;20036;-76
2024/03/07 01:18:38;;;;;;;14.40;8.57;;;;;;;;;;2106648;28;20028;-75
2024/03/07 01:19:58;;;;;;;15.07;8.63;;;;;;;;;;2105540;28;20040;-76
2024/03/07 01:21:17;;;;;;;15.90;8.38;;;;;;;;;;2106215;28;20032;-75
2024/03/07 01:22:35;;;;;;;18.02;8.30;;;;;;;;;;2096461;28;20020;-75
2024/03/07 01:23:54;;;;;;;13.13;7.80;;;;;;;;;;2099976;28;20454;-76
2024/03/07 01:25:14;;;;;;;14.98;8.88;;;;;;;;;;2105939;28;20020;-76
2024/03/07 01:26:35;;;;;;;15.63;8.73;;;;;;;;;;2097647;28;20028;-76
2024/03/07 01:27:55;;;;;;;15.38;8.43;;;;;;;;;;2102267;28;20489;-76
2024/03/07 01:29:15;;;;;;;13.82;8.57;;;;;;;;;;2106151;28;20036;-75
2024/03/07 01:30:34;;;;;;;11.77;8.38;;;;;;;;;;2106350;28;20553;-75
2024/03/07 01:31:53;;;;;;;14.50;8.43;;;;;;;;;;2104765;28;20028;-76
2024/03/07 01:33:12;;;;;;;17.40;9.23;;;;;;;;;;2097400;28;20021;-76
2024/03/07 01:34:30;;;;;;;17.38;9.02;;;;;;;;;;2102519;28;20016;-76
2024/03/07 01:35:50;;;;;;;20.20;9.10;;;;;;;;;;2106142;28;20016;-75
2024/03/07 01:37:10;;;;;;;16.30;8.65;;;;;;;;;;2105396;28;20032;-74
2024/03/07 01:38:29;;;;;;;20.27;10.20;;;;;;;;;;2105345;28;20024;-75
2024/03/07 01:39:48;;;;;;;16.90;10.50;;;;;;;;;;2096028;28;20028;-75
2024/03/07 01:41:06;;;;;;;19.35;10.43;;;;;;;;;;2102676;28;20020;-76
2024/03/07 01:42:25;;;;;;;25.75;10.80;;;;;;;;;;2106797;28;20136;-76
2024/03/07 01:43:44;;;;;;;16.70;9.43;;;;;;;;;;2095580;28;20037;-75
2024/03/07 01:45:03;;;;;;;20.50;10.63;;;;;;;;;;2092648;28;20025;-76
2024/03/07 01:46:22;;;;;;;16.48;9.85;;;;;;;;;;2101476;28;20028;-76
2024/03/07 01:47:41;;;;;;;17.48;9.63;;;;;;;;;;2096112;28;20060;-76
2024/03/07 01:49:02;;;;;;;16.40;9.50;;;;;;;;;;2103063;28;20423;-76
2024/03/07 01:50:21;;;;;;;14.52;9.70;;;;;;;;;;2105549;28;20055;-76
2024/03/07 01:51:40;;;;;;;21.33;10.15;;;;;;;;;;2105239;28;20059;-76
2024/03/07 01:53:00;;;;;;;17.10;9.48;;;;;;;;;;2095862;28;20033;-76
2024/03/07 01:54:19;;;;;;;18.65;9.30;;;;;;;;;;2093543;28;20037;-76
2024/03/07 01:55:38;;;;;;;14.05;8.23;;;;;;;;;;2102108;28;20028;-77
2024/03/07 01:56:58;;;;;;;18.95;8.98;;;;;;;;;;2105082;28;20503;-76
2024/03/07 01:58:19;;;;;;;14.65;9.45;;;;;;;;;;2103578;28;20409;-76
2024/03/07 01:59:38;;;;;;;21.58;9.43;;;;;;;;;;2095753;28;20033;-76
2024/03/07 02:00:58;;;;;;;17.42;9.20;;;;;;;;;;2089714;28;20139;-76
2024/03/07 02:02:20;;;;;;;18.50;9.15;;;;;;;;;;2100054;28;20103;-76
2024/03/07 02:03:39;;;;;;;20.55;8.95;;;;;;;;;;2104327;28;20029;-76
2024/03/07 02:04:58;;;;;;;16.73;8.50;;;;;;;;;;2097030;28;20040;-77
2024/03/07 02:06:17;;;;;;;20.48;8.95;;;;;;;;;;2101607;28;20110;-76
2024/03/07 02:07:36;;;;;;;15.05;8.23;;;;;;;;;;2095901;28;20024;-76
2024/03/07 02:08:55;;;;;;;18.92;8.38;;;;;;;;;;2100842;28;20036;-77
2024/03/07 02:10:14;;;;;;;21.98;9.02;;;;;;;;;;2106041;28;20028;-76
2024/03/07 02:11:33;;;;;;;13.60;8.23;;;;;;;;;;2105487;28;20056;-77
2024/03/07 02:12:53;;;;;;;14.13;8.73;;;;;;;;;;2096396;28;20561;-77
2024/03/07 02:14:12;;;;;;;15.27;7.88;;;;;;;;;;2101110;28;20119;-77
2024/03/07 02:15:30;;;;;;;15.43;8.73;;;;;;;;;;2105490;28;20517;-76
2024/03/07 02:16:49;;;;;;;22.77;8.43;;;;;;;;;;2104922;28;20040;-76
2024/03/07 02:18:09;;;;;;;15.38;8.43;;;;;;;;;;2104438;28;20063;-76
2024/03/07 02:19:28;;;;;;;17.85;8.10;;;;;;;;;;2105902;28;20020;-76
2024/03/07 02:20:47;;;;;;;18.55;8.65;;;;;;;;;;2105378;28;20040;-76
2024/03/07 02:22:06;;;;;;;15.48;7.68;;;;;;;;;;2096690;28;20032;-76
2024/03/07 02:23:24;;;;;;;15.93;8.13;;;;;;;;;;2101187;28;20033;-76
2024/03/07 02:24:45;;;;;;;16.00;9.13;;;;;;;;;;2095665;28;20036;-76
2024/03/07 02:26:04;;;;;;;15.38;8.32;;;;;;;;;;2101445;28;20020;-76
2024/03/07 02:27:23;;;;;;;13.27;8.57;;;;;;;;;;2104943;28;20028;-76
2024/03/07 02:28:42;;;;;;;17.02;8.43;;;;;;;;;;2096312;28;20472;-76
2024/03/07 02:30:04;;;;;;;13.80;7.30;;;;;;;;;;2101658;28;20063;-76
2024/03/07 02:31:34;;;;;;;17.30;7.65;;;;;;;;;;2105193;28;20028;-77
2024/03/07 02:32:54;;;;;;;15.30;8.63;;;;;;;;;;2104751;28;20028;-76
2024/03/07 02:34:13;;;;;;;19.17;8.63;;;;;;;;;;2105303;28;20095;-76
2024/03/07 02:35:34;;;;;;;14.32;8.75;;;;;;;;;;2104529;28;20033;-76
2024/03/07 02:36:53;;;;;;;18.70;9.20;;;;;;;;;;2104745;28;20028;-76
2024/03/07 02:38:12;;;;;;;20.50;8.95;;;;;;;;;;2102926;28;20040;-77
2024/03/07 02:39:31;;;;;;;16.75;8.13;;;;;;;;;;2105797;28;20024;-76
2024/03/07 02:40:50;;;;;;;17.88;8.63;;;;;;;;;;2096556;28;20471;-76
2024/03/07 02:42:09;;;;;;;14.55;7.75;;;;;;;;;;2100349;28;20024;-76
2024/03/07 02:43:28;;;;;;;20.65;8.15;;;;;;;;;;2096095;28;20115;-77
2024/03/07 02:44:47;;;;;;;17.63;8.65;;;;;;;;;;2097529;28;20493;-77
2024/03/07 02:46:06;;;;;;;14.10;7.95;;;;;;;;;;2105701;28;20459;-76
2024/03/07 02:47:25;;;;;;;10.18;7.30;;;;;;;;;;2104641;28;20028;-77
2024/03/07 02:48:44;;;;;;;16.42;8.65;;;;;;;;;;2103997;28;20389;-76
2024/03/07 02:50:03;;;;;;;12.70;7.78;;;;;;;;;;2095816;28;20036;-76
2024/03/07 02:51:22;;;;;;;18.40;8.32;;;;;;;;;;2092995;28;20029;-77
2024/03/07 02:52:41;;;;;;;15.13;7.65;;;;;;;;;;2092527;28;20025;-76
2024/03/07 02:54:00;;;;;;;13.23;7.60;;;;;;;;;;2101690;28;20032;-76
2024/03/07 02:55:20;;;;;;;13.90;7.75;;;;;;;;;;2099759;28;20421;-77
2024/03/07 02:56:39;;;;;;;12.48;7.72;;;;;;;;;;2104433;28;20032;-76
2024/03/07 02:57:58;;;;;;;11.07;7.70;;;;;;;;;;2094985;28;20025;-77
2024/03/07 02:59:17;;;;;;;16.42;7.68;;;;;;;;;;2098945;28;20043;-77
2024/03/07 03:00:36;;;;;;;12.45;7.75;;;;;;;;;;2096096;28;20036;-76
2024/03/07 03:01:55;;;;;;;14.80;7.57;;;;;;;;;;2101800;28;20099;-77
2024/03/07 03:03:14;;;;;;;12.82;7.38;;;;;;;;;;2104626;28;20024;-77
2024/03/07 03:04:33;;;;;;;12.77;8.02;;;;;;;;;;2104549;28;20032;-77
2024/03/07 03:05:52;;;;;;;17.17;7.18;;;;;;;;;;2104859;28;20082;-76
2024/03/07 03:07:11;;;;;;;15.60;7.85;;;;;;;;;;2095399;28;20028;-77
2024/03/07 03:08:30;;;;;;;11.00;6.88;;;;;;;;;;2100999;28;20500;-76
2024/03/07 03:09:49;;;;;;;11.95;7.35;;;;;;;;;;2104480;28;20028;-76
2024/03/07 03:11:13;;;;;;;16.90;8.35;;;;;;;;;;2103454;28;20028;-77
2024/03/07 03:12:32;;;;;;;19.45;7.95;;;;;;;;;;2104219;28;20078;-77
2024/03/07 03:13:52;;;;;;;13.57;7.60;;;;;;;;;;2092618;28;20032;-76
2024/03/07 03:15:11;;;;;;;11.27;7.53;;;;;;;;;;2099486;28;20032;-76
2024/03/07 03:16:31;;;;;;;14.68;7.50;;;;;;;;;;2103627;28;20036;-76
2024/03/07 03:17:51;;;;;;;15.50;7.25;;;;;;;;;;2104277;28;20029;-78
2024/03/07 03:19:10;;;;;;;14.52;7.40;;;;;;;;;;2093986;28;20033;-77
2024/03/07 03:20:38;;;;;;;14.60;7.47;;;;;;;;;;2095697;28;20032;-76
2024/03/07 03:21:57;;;;;;;16.90;8.32;;;;;;;;;;2093550;28;20032;-76
2024/03/07 03:23:16;;;;;;;19.80;7.78;;;;;;;;;;2101095;28;20036;-76
2024/03/07 03:24:36;;;;;;;10.90;6.93;;;;;;;;;;2105007;28;20497;-76
2024/03/07 03:25:55;;;;;;;14.77;7.32;;;;;;;;;;2103501;28;20024;-78
2024/03/07 03:27:14;;;;;;;15.38;7.22;;;;;;;;;;2103745;28;20029;-76
2024/03/07 03:28:33;;;;;;;9.75;6.93;;;;;;;;;;2104539;28;20020;-76
2024/03/07 03:29:52;;;;;;;11.50;6.88;;;;;;;;;;2103520;28;20060;-76
2024/03/07 03:31:13;;;;;;;14.63;7.63;;;;;;;;;;2104557;28;20032;-75
2024/03/07 03:32:32;;;;;;;12.43;7.47;;;;;;;;;;2105238;28;20027;-76
2024/03/07 03:33:52;;;;;;;11.73;7.28;;;;;;;;;;2104196;28;20382;-76
2024/03/07 03:35:13;;;;;;;10.57;6.68;;;;;;;;;;2096177;28;20036;-76
2024/03/07 03:36:32;;;;;;;11.48;6.97;;;;;;;;;;2092242;28;20033;-76
2024/03/07 03:37:50;;;;;;;12.48;7.28;;;;;;;;;;2101623;28;20044;-76
2024/03/07 03:39:13;;;;;;;16.08;7.97;;;;;;;;;;2104047;28;20028;-76
2024/03/07 03:40:32;;;;;;;12.55;7.90;;;;;;;;;;2102840;28;20118;-76
2024/03/07 03:41:50;;;;;;;18.42;7.70;;;;;;;;;;2094966;28;20422;-76
2024/03/07 03:43:09;;;;;;;11.43;7.15;;;;;;;;;;2089102;28;20040;-76
2024/03/07 03:44:28;;;;;;;14.05;7.50;;;;;;;;;;2100382;28;20032;-76
2024/03/07 03:45:47;;;;;;;12.65;7.40;;;;;;;;;;2094949;28;20079;-75
2024/03/07 03:47:06;;;;;;;11.23;7.57;;;;;;;;;;2092174;28;20046;-76
2024/03/07 03:48:25;;;;;;;10.48;7.35;;;;;;;;;;2101057;28;20016;-76
2024/03/07 03:49:44;;;;;;;12.55;7.07;;;;;;;;;;2105033;28;20028;-75
2024/03/07 03:51:03;;;;;;;8.63;6.25;;;;;;;;;;2096489;28;20033;-75
2024/03/07 03:52:22;;;;;;;11.13;7.30;;;;;;;;;;2101031;28;20423;-76
2024/03/07 03:53:41;;;;;;;14.00;7.32;;;;;;;;;;2104488;28;20106;-76
2024/03/07 03:55:00;;;;;;;15.38;7.30;;;;;;;;;;2102639;28;20036;-77
2024/03/07 03:56:19;;;;;;;12.07;6.50;;;;;;;;;;2104361;28;20023;-76
2024/03/07 03:57:38;;;;;;;12.82;7.00;;;;;;;;;;2104862;28;20706;-76
2024/03/07 03:58:57;;;;;;;15.65;7.30;;;;;;;;;;2094623;28;20036;-78
2024/03/07 04:00:17;;;;;;;10.98;7.15;;;;;;;;;;2098335;28;20024;-76
2024/03/07 04:01:35;;;;;;;9.52;7.05;;;;;;;;;;2104120;28;20064;-77
2024/03/07 04:02:54;;;;;;;12.80;7.18;;;;;;;;;;2105032;28;20492;-77
2024/03/07 04:04:14;;;;;;;10.43;6.95;;;;;;;;;;2105292;28;20115;-76
2024/03/07 04:05:33;;;;;;;12.35;7.43;;;;;;;;;;2104655;28;20118;-77
2024/03/07 04:06:52;;;;;;;12.65;6.85;;;;;;;;;;2104549;28;20407;-76
2024/03/07 04:08:10;;;;;;;11.77;5.90;;;;;;;;;;2103559;28;20028;-76
2024/03/07 04:09:29;;;;;;;10.25;6.82;;;;;;;;;;2104431;28;20063;-76
2024/03/07 04:10:48;;;;;;;15.55;6.72;;;;;;;;;;2104081;28;20881;-76
2024/03/07 04:12:10;;;;;;;16.08;7.10;;;;;;;;;;2104262;28;20106;-76
2024/03/07 04:13:30;;;;;;;12.88;6.88;;;;;;;;;;2096344;28;20021;-76
2024/03/07 04:14:49;;;;;;;11.25;6.78;;;;;;;;;;2100998;28;20020;-76
2024/03/07 04:16:08;;;;;;;15.05;6.72;;;;;;;;;;2093768;28;20513;-76
2024/03/07 04:17:27;;;;;;;11.82;5.95;;;;;;;;;;2101701;28;20066;-76
2024/03/07 04:18:46;;;;;;;10.90;6.20;;;;;;;;;;2104503;28;20036;-76
2024/03/07 04:20:06;;;;;;;8.65;6.40;;;;;;;;;;2104958;28;20036;-75
2024/03/07 04:21:25;;;;;;;10.82;6.68;;;;;;;;;;2104268;28;20036;-76
2024/03/07 04:22:44;;;;;;;14.90;6.55;;;;;;;;;;2104058;28;20035;-77
2024/03/07 04:24:03;;;;;;;12.00;6.40;;;;;;;;;;2105019;28;20032;-76
2024/03/07 04:25:22;;;;;;;10.00;6.43;;;;;;;;;;2093792;28;20032;-76
2024/03/07 04:26:41;;;;;;;14.20;7.07;;;;;;;;;;2100921;28;20016;-76
2024/03/07 04:28:00;;;;;;;9.80;5.70;;;;;;;;;;2102994;28;20032;-77
2024/03/07 04:29:19;;;;;;;12.82;6.63;;;;;;;;;;2104367;28;20024;-76
2024/03/07 04:30:38;;;;;;;7.57;5.97;;;;;;;;;;2105104;28;20028;-76
2024/03/07 04:31:57;;;;;;;9.88;6.60;;;;;;;;;;2104023;28;20056;-75
2024/03/07 04:33:16;;;;;;;14.40;7.00;;;;;;;;;;2105311;28;20477;-75
2024/03/07 04:34:36;;;;;;;10.30;6.53;;;;;;;;;;2090853;28;20075;-76
2024/03/07 04:35:55;;;;;;;14.90;6.72;;;;;;;;;;2100223;28;20040;-75
2024/03/07 04:37:15;;;;;;;8.90;6.25;;;;;;;;;;2096123;28;20024;-75
2024/03/07 04:38:34;;;;;;;12.80;6.53;;;;;;;;;;2101766;28;20028;-75
2024/03/07 04:39:53;;;;;;;7.63;6.18;;;;;;;;;;2104283;28;20564;-75
2024/03/07 04:41:12;;;;;;;10.13;6.53;;;;;;;;;;2095432;28;20037;-76
2024/03/07 04:42:31;;;;;;;13.00;7.03;;;;;;;;;;2095938;28;20021;-75
2024/03/07 04:43:49;;;;;;;17.55;6.72;;;;;;;;;;2101445;28;20095;-75
2024/03/07 04:45:10;;;;;;;12.63;5.97;;;;;;;;;;2103567;28;20115;-75
2024/03/07 04:46:30;;;;;;;14.25;6.40;;;;;;;;;;2095721;28;20071;-76
2024/03/07 04:47:49;;;;;;;12.05;6.40;;;;;;;;;;2101620;28;20036;-76
2024/03/07 04:49:09;;;;;;;9.75;5.57;;;;;;;;;;2105453;28;20024;-75
2024/03/07 04:50:28;;;;;;;13.23;6.43;;;;;;;;;;2103839;28;20012;-75
2024/03/07 04:51:47;;;;;;;12.98;5.88;;;;;;;;;;2103250;28;20429;-76
2024/03/07 04:53:06;;;;;;;10.95;6.43;;;;;;;;;;2104084;28;20064;-76
2024/03/07 04:54:25;;;;;;;11.02;5.85;;;;;;;;;;2102933;28;20028;-76
2024/03/07 04:55:44;;;;;;;12.82;6.97;;;;;;;;;;2103771;28;20119;-76
2024/03/07 04:57:05;;;;;;;12.93;6.35;;;;;;;;;;2094585;28;20032;-75
2024/03/07 04:58:24;;;;;;;10.45;6.38;;;;;;;;;;2099098;28;20032;-76
2024/03/07 04:59:43;;;;;;;13.98;6.03;;;;;;;;;;2103826;28;20032;-75
2024/03/07 05:01:03;;;;;;;16.25;6.13;;;;;;;;;;2103889;28;20028;-76
2024/03/07 05:02:23;;;;;;;9.48;6.18;;;;;;;;;;2104364;28;20486;-75
2024/03/07 05:03:42;;;;;;;8.50;6.25;;;;;;;;;;2101132;28;20123;-75
2024/03/07 05:05:01;;;;;;;9.63;5.45;;;;;;;;;;2102279;28;20032;-76
2024/03/07 05:06:20;;;;;;;9.18;5.95;;;;;;;;;;2095273;28;20052;-75
2024/03/07 05:07:40;;;;;;;8.77;6.18;;;;;;;;;;2098993;28;20028;-77
2024/03/07 05:09:03;;;;;;;17.50;6.22;;;;;;;;;;2104378;28;20239;-76
2024/03/07 05:10:22;;;;;;;9.23;5.97;;;;;;;;;;2104758;28;20056;-76
2024/03/07 05:11:41;;;;;;;12.15;6.70;;;;;;;;;;2104088;28;20020;-76
2024/03/07 05:13:00;;;;;;;11.40;6.25;;;;;;;;;;2104012;28;20024;-76
2024/03/07 05:14:20;;;;;;;11.38;5.95;;;;;;;;;;2103535;28;20036;-77
2024/03/07 05:15:39;;;;;;;11.30;6.05;;;;;;;;;;2104176;28;20028;-78
2024/03/07 05:17:08;;;;;;;9.35;5.80;;;;;;;;;;2103180;28;21340;-80
2024/03/07 05:18:27;;;;;;;11.27;5.68;;;;;;;;;;2095345;28;20107;-79
2024/03/07 05:19:47;;;;;;;11.00;6.07;;;;;;;;;;2101568;28;20031;-79
2024/03/07 05:21:35;;;;;;;12.93;6.72;;;;;;;;;;2104264;28;20035;-81
2024/03/07 05:22:50;;;;;;;9.48;5.93;;;;;;;;;;2105047;28;20036;-79
2024/03/07 05:24:09;;;;;;;10.52;5.97;;;;;;;;;;2105035;28;20503;-81
2024/03/07 05:25:27;;;;;;;12.07;6.00;;;;;;;;;;2106610;28;20032;-81
2024/03/07 05:26:46;;;;;;;9.98;5.82;;;;;;;;;;2106128;28;20032;-77
2024/03/07 05:28:07;;;;;;;7.03;6.07;;;;;;;;;;2096370;28;20032;-79
2024/03/07 05:29:26;;;;;;;11.85;7.05;;;;;;;;;;2102207;28;20020;-79
2024/03/07 05:30:47;;;;;;;13.65;6.50;;;;;;;;;;2106029;28;20409;-77
2024/03/07 05:32:22;;;;;;;14.93;6.18;;;;;;;;;;2104443;28;20028;-78
2024/03/07 05:33:41;;;;;;;9.13;6.35;;;;;;;;;;2097074;28;20041;-77
2024/03/07 05:35:00;;;;;;;10.60;5.60;;;;;;;;;;2102080;28;20028;-77
2024/03/07 05:36:19;;;;;;;13.43;6.20;;;;;;;;;;2096470;28;20029;-79
2024/03/07 05:37:41;;;;;;;10.85;5.78;;;;;;;;;;2101941;28;20036;-79
2024/03/07 05:39:02;;;;;;;13.00;6.10;;;;;;;;;;2105233;28;20477;-75
2024/03/07 05:40:21;;;;;;;9.60;6.55;;;;;;;;;;2095863;28;20032;-78
2024/03/07 05:41:42;;;;;;;19.63;7.43;;;;;;;;;;2090845;28;20048;-81
2024/03/07 05:43:01;;;;;;;8.82;5.85;;;;;;;;;;2090740;28;20099;-79
2024/03/07 05:44:21;;;;;;;6.85;5.80;;;;;;;;;;2101272;28;20028;-79
2024/03/07 05:45:42;;;;;;;13.82;6.38;;;;;;;;;;2106032;28;20035;-79
2024/03/07 05:47:00;;;;;;;9.60;5.60;;;;;;;;;;2106933;28;20027;-85
2024/03/07 05:48:19;;;;;;;11.68;6.70;;;;;;;;;;2106249;28;20058;-82
2024/03/07 05:49:39;;;;;;;14.27;5.55;;;;;;;;;;2094584;28;20029;-82
2024/03/07 05:50:58;;;;;;;9.43;5.93;;;;;;;;;;2092898;28;20029;-82
2024/03/07 05:52:17;;;;;;;8.52;5.40;;;;;;;;;;2102705;28;20024;-82
2024/03/07 05:53:37;;;;;;;10.73;6.05;;;;;;;;;;2105952;28;20478;-84
2024/03/07 05:54:56;;;;;;;12.20;6.05;;;;;;;;;;2104595;28;20032;-84
2024/03/07 05:56:16;;;;;;;10.50;6.43;;;;;;;;;;2107053;28;20040;-84
2024/03/07 05:57:34;;;;;;;15.98;6.57;;;;;;;;;;2105523;28;20052;-84
2024/03/07 05:58:53;;;;;;;10.80;7.38;;;;;;;;;;2107449;28;20036;-84
2024/03/07 06:00:15;;;;;;;8.43;5.95;;;;;;;;;;2104907;28;20032;-82
2024/03/07 06:01:34;;;;;;;10.95;6.03;;;;;;;;;;2104854;28;20025;-83
2024/03/07 06:02:53;;;;;;;10.07;5.75;;;;;;;;;;2104838;28;20051;-86
2024/03/07 06:04:12;;;;;;;9.73;5.88;;;;;;;;;;2106578;28;20028;-84
2024/03/07 06:05:31;;;;;;;9.48;5.97;;;;;;;;;;2096863;28;20025;-81
2024/03/07 06:06:50;;;;;;;9.68;5.68;;;;;;;;;;2103691;28;20028;-85
2024/03/07 06:08:09;;;;;;;17.65;5.70;;;;;;;;;;2105694;28;20016;-81
2024/03/07 06:09:28;;;;;;;8.15;5.35;;;;;;;;;;2105466;28;20480;-86
2024/03/07 06:10:48;;;;;;;9.32;6.00;;;;;;;;;;2106659;28;20431;-82
2024/03/07 06:12:08;;;;;;;10.32;6.22;;;;;;;;;;2105249;28;20393;-83
2024/03/07 06:13:27;;;;;;;14.70;6.10;;;;;;;;;;2097972;28;20028;-81
2024/03/07 06:14:46;;;;;;;12.43;6.43;;;;;;;;;;2102905;28;20419;-84
2024/03/07 06:16:07;;;;;;;14.05;5.95;;;;;;;;;;2105421;28;20105;-84
2024/03/07 06:17:27;;;;;;;14.07;5.70;;;;;;;;;;2105819;28;20036;-85
2024/03/07 06:18:47;;;;;;;9.13;5.32;;;;;;;;;;2107105;28;20052;-86
2024/03/07 06:20:20;;;;;;;8.25;5.70;;;;;;;;;;2097741;28;20024;-85
2024/03/07 06:21:43;;;;;;;9.05;5.40;;;;;;;;;;2105214;28;20424;-84
2024/03/07 06:23:05;;;;;;;7.70;5.35;;;;;;;;;;2096209;28;20116;-88
2024/03/07 06:24:27;;;;;;;12.45;5.70;;;;;;;;;;2094225;28;20016;-83
2024/03/07 06:25:47;;;;;;;9.65;5.75;;;;;;;;;;2096424;28;20045;-88
2024/03/07 06:27:15;;;;;;;12.80;6.13;;;;;;;;;;2102779;28;20107;-88
2024/03/07 06:28:34;;;;;;;12.50;5.50;;;;;;;;;;2095416;28;20025;-89
2024/03/07 06:29:53;;;;;;;9.60;6.03;;;;;;;;;;2104717;28;20028;-89
2024/03/07 06:31:12;;;;;;;6.97;5.53;;;;;;;;;;2096717;28;20029;-92
2024/03/07 06:32:31;;;;;;;5.85;5.18;;;;;;;;;;2096008;28;20036;-87
2024/03/07 06:33:50;;;;;;;7.30;5.68;;;;;;;;;;2102635;28;20377;-91
2024/03/07 06:35:09;;;;;;;9.73;5.50;;;;;;;;;;2098981;28;20033;-91
2024/03/07 06:36:29;;;;;;;8.95;5.53;;;;;;;;;;2093613;28;20037;-90
2024/03/07 06:37:48;;;;;;;8.32;5.53;;;;;;;;;;2103942;28;20051;-87
2024/03/07 06:39:11;;;;;;;7.80;5.18;;;;;;;;;;2103932;28;20021;-89
2024/03/07 06:40:30;;;;;;;6.70;5.00;;;;;;;;;;2104674;28;20029;-87
2024/03/07 06:41:49;;;;;;;6.35;5.35;;;;;;;;;;2103862;28;20039;-88
2024/03/07 06:43:10;;;;;;;11.55;5.75;;;;;;;;;;2107363;28;20459;-90
2024/03/07 06:44:29;;;;;;;9.82;5.63;;;;;;;;;;2106365;28;20051;-86
2024/03/07 06:45:51;;;;;;;10.35;5.70;;;;;;;;;;2107244;28;20047;-87
2024/03/07 06:47:10;;;;;;;9.30;5.45;;;;;;;;;;2096497;28;20024;-89
2024/03/07 06:48:30;;;;;;;8.55;4.90;;;;;;;;;;2102094;28;20020;-81
2024/03/07 06:49:49;;;;;;;10.25;5.40;;;;;;;;;;2104705;28;20032;-89
2024/03/07 06:51:08;;;;;;;6.65;5.13;;;;;;;;;;2103943;28;20032;-89
2024/03/07 06:52:27;;;;;;;8.35;4.90;;;;;;;;;;2095574;28;20028;-87
2024/03/07 06:53:46;;;;;;;10.50;6.18;;;;;;;;;;2094903;28;20160;-89
2024/03/07 06:55:07;;;;;;;8.70;5.60;;;;;;;;;;2095653;28;20056;-86
2024/03/07 06:56:26;;;;;;;10.82;5.15;;;;;;;;;;2096995;28;20029;-88
2024/03/07 06:57:45;;;;;;;9.85;5.32;;;;;;;;;;2096440;28;20028;-88
2024/03/07 06:59:04;;;;;;;11.20;5.82;;;;;;;;;;2096266;28;20530;-82
2024/03/07 07:00:23;;;;;;;11.68;5.63;;;;;;;;;;2095703;28;20459;-84
2024/03/07 07:01:43;;;;;;;11.80;5.07;;;;;;;;;;2093652;28;20060;-87
2024/03/07 07:03:03;;;;;;;8.15;5.03;;;;;;;;;;2097308;28;20028;-87
2024/03/07 07:04:25;;;;;;;8.63;5.03;;;;;;;;;;2096889;28;20025;-88
2024/03/07 07:05:45;;;;;;;8.38;5.00;;;;;;;;;;2096520;28;20033;-87
2024/03/07 07:07:04;;;;;;;8.50;5.20;;;;;;;;;;2098128;28;20036;-86
2024/03/07 07:08:23;;;;;;;9.88;5.03;;;;;;;;;;2098398;28;20028;-87
2024/03/07 07:09:43;;;;;;;11.02;5.13;;;;;;;;;;2097137;28;20068;-86
2024/03/07 07:11:03;;;;;;;11.38;5.20;;;;;;;;;;2096257;28;20024;-88
2024/03/07 07:12:23;;;;;;;10.00;5.13;;;;;;;;;;2089392;28;20037;-87
2024/03/07 07:13:42;;;;;;;10.27;5.47;;;;;;;;;;2089997;28;20033;-83
2024/03/07 07:15:03;;;;;;;7.70;4.65;;;;;;;;;;2093963;28;20155;-85
2024/03/07 07:16:22;;;;;;;7.75;5.07;;;;;;;;;;2094771;28;20029;-87
2024/03/07 07:17:45;;;;;;;10.93;4.82;;;;;;;;;;2097480;28;20044;-87
2024/03/07 07:19:07;;;;;;;10.05;5.57;;;;;;;;;;2097881;28;20533;-87
2024/03/07 07:20:25;;;;;;;8.82;4.65;;;;;;;;;;2092685;28;20032;-85
2024/03/07 07:21:45;;;;;;;9.90;5.53;;;;;;;;;;2098687;28;20103;-87
2024/03/07 07:23:03;;;;;;;8.57;4.65;;;;;;;;;;2096287;28;20501;-87
2024/03/07 07:24:25;;;;;;;18.15;4.90;;;;;;;;;;2096844;28;20036;-88
2024/03/07 07:25:44;;;;;;;10.60;4.75;;;;;;;;;;2095290;28;20048;-84
2024/03/07 07:27:03;;;;;;;9.20;4.38;;;;;;;;;;2096533;28;20051;-86
2024/03/07 07:28:22;;;;;;;7.32;4.50;;;;;;;;;;2095718;28;20020;-89
2024/03/07 07:29:41;;;;;;;6.53;4.72;;;;;;;;;;2098199;28;20021;-81
2024/03/07 07:31:00;;;;;;;7.57;4.93;;;;;;;;;;2097304;28;20024;-84
2024/03/07 07:32:19;;;;;;;10.55;5.50;;;;;;;;;;2097741;28;20021;-88
2024/03/07 07:33:38;;;;;;;8.75;5.00;;;;;;;;;;2096443;28;20028;-88
2024/03/07 07:34:57;;;;;;;6.78;5.05;;;;;;;;;;2097884;28;20032;-87
2024/03/07 07:36:18;;;;;;;9.02;5.13;;;;;;;;;;2095998;28;20175;-86
2024/03/07 07:37:40;;;;;;;11.60;4.43;;;;;;;;;;2093901;28;20454;-87
2024/03/07 07:38:59;;;;;;;8.80;5.38;;;;;;;;;;2089582;28;20024;-87
2024/03/07 07:40:21;;;;;;;8.65;4.90;;;;;;;;;;2091075;28;20592;-87
2024/03/07 07:41:41;;;;;;;8.07;5.00;;;;;;;;;;2092639;28;20036;-87
2024/03/07 07:43:01;;;;;;;6.72;4.45;;;;;;;;;;2093698;28;20507;-87
2024/03/07 07:44:20;;;;;;;6.65;4.40;;;;;;;;;;2096690;28;20025;-87
2024/03/07 07:45:39;;;;;;;7.32;4.45;;;;;;;;;;2096919;28;20059;-87
2024/03/07 07:46:58;;;;;;;9.60;3.92;;;;;;;;;;2092762;28;20107;-85
2024/03/07 07:48:19;;;;;;;7.82;4.82;;;;;;;;;;2097588;28;20032;-88
2024/03/07 07:49:39;;;;;;;8.40;4.47;;;;;;;;;;2097629;28;20025;-84
2024/03/07 07:50:58;;;;;;;8.30;4.28;;;;;;;;;;2096935;28;20032;-87
2024/03/07 07:52:17;;;;;;;8.25;3.88;;;;;;;;;;2093535;28;20017;-87